sensor_id;sensor_type;location;lat;lon;timestamp;P1;durP1;ratioP1;P2;durP2;ratioP2
4726;SDS011;2377;51.734;8.950;2023-08-30T00:01:29;5.37;;;4.47;;
4726;SDS011;2377;51.734;8.950;2023-08-30T00:03:57;5.07;;;4.63;;
4726;SDS011;2377;51.734;8.950;2023-08-30T00:06:25;6.80;;;5.07;;
4726;SDS011;2377;51.734;8.950;2023-08-30T00:08:52;9.50;;;5.07;;
4726;SDS011;2377;51.734;8.950;2023-08-30T00:11:21;5.13;;;4.67;;
4726;SDS011;2377;51.734;8.950;2023-08-30T00:13:49;5.87;;;5.10;;
4726;SDS011;2377;51.734;8.950;2023-08-30T00:16:16;5.40;;;4.43;;
4726;SDS011;2377;51.734;8.950;2023-08-30T00:18:43;7.00;;;5.00;;
4726;SDS011;2377;51.734;8.950;2023-08-30T00:21:12;5.43;;;4.90;;
4726;SDS011;2377;51.734;8.950;2023-08-30T00:23:39;5.60;;;4.90;;
4726;SDS011;2377;51.734;8.950;2023-08-30T00:26:06;5.93;;;5.27;;
4726;SDS011;2377;51.734;8.950;2023-08-30T00:28:33;11.07;;;5.23;;
4726;SDS011;2377;51.734;8.950;2023-08-30T00:31:00;5.83;;;4.47;;
4726;SDS011;2377;51.734;8.950;2023-08-30T00:33:27;4.40;;;4.00;;
4726;SDS011;2377;51.734;8.950;2023-08-30T00:35:55;5.00;;;4.50;;
4726;SDS011;2377;51.734;8.950;2023-08-30T00:38:25;6.53;;;5.13;;
4726;SDS011;2377;51.734;8.950;2023-08-30T00:40:53;6.00;;;4.83;;
4726;SDS011;2377;51.734;8.950;2023-08-30T00:43:21;6.60;;;4.60;;
4726;SDS011;2377;51.734;8.950;2023-08-30T00:45:48;8.03;;;5.60;;
4726;SDS011;2377;51.734;8.950;2023-08-30T00:48:16;5.57;;;5.07;;
4726;SDS011;2377;51.734;8.950;2023-08-30T00:50:46;4.83;;;4.30;;
4726;SDS011;2377;51.734;8.950;2023-08-30T00:53:14;4.87;;;4.03;;
4726;SDS011;2377;51.734;8.950;2023-08-30T00:55:43;5.40;;;4.90;;
4726;SDS011;2377;51.734;8.950;2023-08-30T00:58:11;7.60;;;5.50;;
4726;SDS011;2377;51.734;8.950;2023-08-30T01:00:39;5.17;;;4.70;;
4726;SDS011;2377;51.734;8.950;2023-08-30T01:03:06;7.03;;;5.23;;
4726;SDS011;2377;51.734;8.950;2023-08-30T01:05:33;6.70;;;5.43;;
4726;SDS011;2377;51.734;8.950;2023-08-30T01:08:01;8.20;;;5.90;;
4726;SDS011;2377;51.734;8.950;2023-08-30T01:10:31;6.10;;;5.50;;
4726;SDS011;2377;51.734;8.950;2023-08-30T01:13:14;6.83;;;6.10;;
4726;SDS011;2377;51.734;8.950;2023-08-30T01:15:46;6.40;;;5.73;;
4726;SDS011;2377;51.734;8.950;2023-08-30T01:18:17;9.10;;;6.07;;
4726;SDS011;2377;51.734;8.950;2023-08-30T01:20:46;9.17;;;5.93;;
4726;SDS011;2377;51.734;8.950;2023-08-30T01:23:18;6.53;;;5.93;;
4726;SDS011;2377;51.734;8.950;2023-08-30T01:26:06;6.37;;;5.77;;
4726;SDS011;2377;51.734;8.950;2023-08-30T01:28:42;8.20;;;4.60;;
4726;SDS011;2377;51.734;8.950;2023-08-30T01:31:10;5.23;;;4.63;;
4726;SDS011;2377;51.734;8.950;2023-08-30T01:33:38;5.17;;;4.67;;
4726;SDS011;2377;51.734;8.950;2023-08-30T01:36:07;7.57;;;4.77;;
4726;SDS011;2377;51.734;8.950;2023-08-30T01:38:35;6.63;;;5.50;;
4726;SDS011;2377;51.734;8.950;2023-08-30T01:41:05;5.00;;;4.60;;
4726;SDS011;2377;51.734;8.950;2023-08-30T01:43:32;5.60;;;5.00;;
4726;SDS011;2377;51.734;8.950;2023-08-30T01:46:03;7.07;;;5.60;;
4726;SDS011;2377;51.734;8.950;2023-08-30T01:48:32;10.83;;;5.20;;
4726;SDS011;2377;51.734;8.950;2023-08-30T01:51:02;5.03;;;4.60;;
4726;SDS011;2377;51.734;8.950;2023-08-30T01:53:30;10.20;;;4.10;;
4726;SDS011;2377;51.734;8.950;2023-08-30T01:55:58;5.03;;;4.50;;
4726;SDS011;2377;51.734;8.950;2023-08-30T01:58:25;5.57;;;4.10;;
4726;SDS011;2377;51.734;8.950;2023-08-30T02:00:53;5.30;;;4.80;;
4726;SDS011;2377;51.734;8.950;2023-08-30T02:03:22;5.27;;;4.13;;
4726;SDS011;2377;51.734;8.950;2023-08-30T02:05:52;4.67;;;4.27;;
4726;SDS011;2377;51.734;8.950;2023-08-30T02:08:31;4.93;;;4.37;;
4726;SDS011;2377;51.734;8.950;2023-08-30T02:11:07;4.40;;;4.00;;
4726;SDS011;2377;51.734;8.950;2023-08-30T02:13:43;4.37;;;3.77;;
4726;SDS011;2377;51.734;8.950;2023-08-30T02:16:13;5.50;;;4.13;;
4726;SDS011;2377;51.734;8.950;2023-08-30T02:18:44;4.60;;;4.20;;
4726;SDS011;2377;51.734;8.950;2023-08-30T02:21:12;5.73;;;5.13;;
4726;SDS011;2377;51.734;8.950;2023-08-30T02:23:40;5.43;;;3.70;;
4726;SDS011;2377;51.734;8.950;2023-08-30T02:26:07;3.87;;;3.47;;
4726;SDS011;2377;51.734;8.950;2023-08-30T02:28:34;4.80;;;4.40;;
4726;SDS011;2377;51.734;8.950;2023-08-30T02:31:03;4.23;;;3.80;;
4726;SDS011;2377;51.734;8.950;2023-08-30T02:33:30;4.80;;;3.70;;
4726;SDS011;2377;51.734;8.950;2023-08-30T02:35:59;5.63;;;3.67;;
4726;SDS011;2377;51.734;8.950;2023-08-30T02:38:26;5.17;;;4.30;;
4726;SDS011;2377;51.734;8.950;2023-08-30T02:40:53;6.80;;;4.30;;
4726;SDS011;2377;51.734;8.950;2023-08-30T02:43:20;7.43;;;5.00;;
4726;SDS011;2377;51.734;8.950;2023-08-30T02:45:48;5.60;;;4.10;;
4726;SDS011;2377;51.734;8.950;2023-08-30T02:48:16;8.23;;;3.70;;
4726;SDS011;2377;51.734;8.950;2023-08-30T02:50:44;5.47;;;3.97;;
4726;SDS011;2377;51.734;8.950;2023-08-30T02:53:12;6.53;;;4.43;;
4726;SDS011;2377;51.734;8.950;2023-08-30T02:55:39;5.07;;;3.90;;
4726;SDS011;2377;51.734;8.950;2023-08-30T02:58:06;6.40;;;4.17;;
4726;SDS011;2377;51.734;8.950;2023-08-30T03:00:33;7.70;;;4.60;;
4726;SDS011;2377;51.734;8.950;2023-08-30T03:03:01;7.30;;;3.90;;
4726;SDS011;2377;51.734;8.950;2023-08-30T03:05:28;5.40;;;4.17;;
4726;SDS011;2377;51.734;8.950;2023-08-30T03:07:55;5.17;;;4.67;;
4726;SDS011;2377;51.734;8.950;2023-08-30T03:10:24;5.50;;;4.57;;
4726;SDS011;2377;51.734;8.950;2023-08-30T03:12:51;5.13;;;4.60;;
4726;SDS011;2377;51.734;8.950;2023-08-30T03:15:18;7.63;;;4.50;;
4726;SDS011;2377;51.734;8.950;2023-08-30T03:17:45;5.50;;;4.57;;
4726;SDS011;2377;51.734;8.950;2023-08-30T03:20:12;5.60;;;4.30;;
4726;SDS011;2377;51.734;8.950;2023-08-30T03:22:40;6.30;;;3.90;;
4726;SDS011;2377;51.734;8.950;2023-08-30T03:25:08;4.20;;;3.80;;
4726;SDS011;2377;51.734;8.950;2023-08-30T03:27:37;10.37;;;5.37;;
4726;SDS011;2377;51.734;8.950;2023-08-30T03:30:05;12.03;;;5.60;;
4726;SDS011;2377;51.734;8.950;2023-08-30T03:32:33;5.00;;;4.50;;
4726;SDS011;2377;51.734;8.950;2023-08-30T03:35:00;5.10;;;4.63;;
4726;SDS011;2377;51.734;8.950;2023-08-30T03:37:28;9.00;;;4.80;;
4726;SDS011;2377;51.734;8.950;2023-08-30T03:39:55;4.40;;;4.00;;
4726;SDS011;2377;51.734;8.950;2023-08-30T03:42:22;5.17;;;4.23;;
4726;SDS011;2377;51.734;8.950;2023-08-30T03:44:51;5.70;;;4.33;;
4726;SDS011;2377;51.734;8.950;2023-08-30T03:47:18;7.67;;;4.47;;
4726;SDS011;2377;51.734;8.950;2023-08-30T03:49:45;4.97;;;4.47;;
4726;SDS011;2377;51.734;8.950;2023-08-30T03:52:12;6.70;;;4.40;;
4726;SDS011;2377;51.734;8.950;2023-08-30T03:54:40;5.67;;;4.87;;
4726;SDS011;2377;51.734;8.950;2023-08-30T03:57:07;5.80;;;4.50;;
4726;SDS011;2377;51.734;8.950;2023-08-30T03:59:34;4.90;;;4.37;;
4726;SDS011;2377;51.734;8.950;2023-08-30T04:02:03;5.50;;;4.67;;
4726;SDS011;2377;51.734;8.950;2023-08-30T04:04:30;4.73;;;4.33;;
4726;SDS011;2377;51.734;8.950;2023-08-30T04:06:57;5.90;;;5.00;;
4726;SDS011;2377;51.734;8.950;2023-08-30T04:09:25;5.30;;;4.40;;
4726;SDS011;2377;51.734;8.950;2023-08-30T04:11:52;5.70;;;5.10;;
4726;SDS011;2377;51.734;8.950;2023-08-30T04:14:20;5.73;;;5.13;;
4726;SDS011;2377;51.734;8.950;2023-08-30T04:16:47;5.40;;;4.90;;
4726;SDS011;2377;51.734;8.950;2023-08-30T04:19:15;6.70;;;5.30;;
4726;SDS011;2377;51.734;8.950;2023-08-30T04:21:42;6.40;;;5.10;;
4726;SDS011;2377;51.734;8.950;2023-08-30T04:24:09;7.47;;;5.57;;
4726;SDS011;2377;51.734;8.950;2023-08-30T04:26:37;5.50;;;4.67;;
4726;SDS011;2377;51.734;8.950;2023-08-30T04:29:04;5.50;;;5.00;;
4726;SDS011;2377;51.734;8.950;2023-08-30T04:31:31;6.97;;;5.73;;
4726;SDS011;2377;51.734;8.950;2023-08-30T04:33:59;7.97;;;5.23;;
4726;SDS011;2377;51.734;8.950;2023-08-30T04:36:27;7.87;;;5.47;;
4726;SDS011;2377;51.734;8.950;2023-08-30T04:38:54;6.07;;;5.40;;
4726;SDS011;2377;51.734;8.950;2023-08-30T04:41:21;5.83;;;5.23;;
4726;SDS011;2377;51.734;8.950;2023-08-30T04:43:48;7.53;;;5.57;;
4726;SDS011;2377;51.734;8.950;2023-08-30T04:46:16;9.33;;;6.87;;
4726;SDS011;2377;51.734;8.950;2023-08-30T04:48:43;5.80;;;5.20;;
4726;SDS011;2377;51.734;8.950;2023-08-30T04:51:10;6.00;;;5.40;;
4726;SDS011;2377;51.734;8.950;2023-08-30T04:53:38;7.90;;;6.37;;
4726;SDS011;2377;51.734;8.950;2023-08-30T04:56:12;7.20;;;6.50;;
4726;SDS011;2377;51.734;8.950;2023-08-30T04:58:40;9.10;;;8.10;;
4726;SDS011;2377;51.734;8.950;2023-08-30T05:01:07;8.27;;;7.43;;
4726;SDS011;2377;51.734;8.950;2023-08-30T05:03:34;8.50;;;7.20;;
4726;SDS011;2377;51.734;8.950;2023-08-30T05:06:01;7.63;;;6.87;;
4726;SDS011;2377;51.734;8.950;2023-08-30T05:08:29;8.10;;;6.37;;
4726;SDS011;2377;51.734;8.950;2023-08-30T05:10:57;8.30;;;7.10;;
4726;SDS011;2377;51.734;8.950;2023-08-30T05:13:24;7.60;;;6.10;;
4726;SDS011;2377;51.734;8.950;2023-08-30T05:15:52;8.17;;;7.30;;
4726;SDS011;2377;51.734;8.950;2023-08-30T05:18:19;7.90;;;7.10;;
4726;SDS011;2377;51.734;8.950;2023-08-30T05:20:46;12.83;;;8.03;;
4726;SDS011;2377;51.734;8.950;2023-08-30T05:23:13;8.23;;;6.93;;
4726;SDS011;2377;51.734;8.950;2023-08-30T05:25:41;10.07;;;9.07;;
4726;SDS011;2377;51.734;8.950;2023-08-30T05:28:09;14.07;;;10.63;;
4726;SDS011;2377;51.734;8.950;2023-08-30T05:30:37;10.40;;;8.57;;
4726;SDS011;2377;51.734;8.950;2023-08-30T05:33:08;11.60;;;7.00;;
4726;SDS011;2377;51.734;8.950;2023-08-30T05:35:35;8.00;;;6.33;;
4726;SDS011;2377;51.734;8.950;2023-08-30T05:38:02;8.90;;;7.93;;
4726;SDS011;2377;51.734;8.950;2023-08-30T05:40:29;11.17;;;8.63;;
4726;SDS011;2377;51.734;8.950;2023-08-30T05:42:57;11.20;;;8.83;;
4726;SDS011;2377;51.734;8.950;2023-08-30T05:45:28;10.80;;;7.90;;
4726;SDS011;2377;51.734;8.950;2023-08-30T05:47:55;9.13;;;8.23;;
4726;SDS011;2377;51.734;8.950;2023-08-30T05:50:22;10.33;;;8.40;;
4726;SDS011;2377;51.734;8.950;2023-08-30T05:52:50;10.70;;;8.53;;
4726;SDS011;2377;51.734;8.950;2023-08-30T05:55:17;9.13;;;8.13;;
4726;SDS011;2377;51.734;8.950;2023-08-30T05:57:44;11.47;;;8.87;;
4726;SDS011;2377;51.734;8.950;2023-08-30T06:00:12;9.33;;;7.90;;
4726;SDS011;2377;51.734;8.950;2023-08-30T06:02:41;11.07;;;9.47;;
4726;SDS011;2377;51.734;8.950;2023-08-30T06:05:08;12.83;;;9.30;;
4726;SDS011;2377;51.734;8.950;2023-08-30T06:07:36;9.60;;;8.60;;
4726;SDS011;2377;51.734;8.950;2023-08-30T06:10:03;11.47;;;9.40;;
4726;SDS011;2377;51.734;8.950;2023-08-30T06:12:34;11.57;;;9.53;;
4726;SDS011;2377;51.734;8.950;2023-08-30T06:15:01;9.90;;;8.47;;
4726;SDS011;2377;51.734;8.950;2023-08-30T06:17:29;10.43;;;9.23;;
4726;SDS011;2377;51.734;8.950;2023-08-30T06:19:58;11.80;;;8.83;;
4726;SDS011;2377;51.734;8.950;2023-08-30T06:22:25;12.20;;;9.30;;
4726;SDS011;2377;51.734;8.950;2023-08-30T06:24:52;10.77;;;9.40;;
4726;SDS011;2377;51.734;8.950;2023-08-30T06:27:19;10.33;;;8.93;;
4726;SDS011;2377;51.734;8.950;2023-08-30T06:29:47;11.40;;;9.23;;
4726;SDS011;2377;51.734;8.950;2023-08-30T06:32:14;10.00;;;8.93;;
4726;SDS011;2377;51.734;8.950;2023-08-30T06:34:42;12.17;;;8.90;;
4726;SDS011;2377;51.734;8.950;2023-08-30T06:37:10;10.87;;;8.67;;
4726;SDS011;2377;51.734;8.950;2023-08-30T06:39:37;11.70;;;9.30;;
4726;SDS011;2377;51.734;8.950;2023-08-30T06:42:04;11.60;;;9.90;;
4726;SDS011;2377;51.734;8.950;2023-08-30T06:44:32;12.17;;;10.53;;
4726;SDS011;2377;51.734;8.950;2023-08-30T06:46:59;16.10;;;11.23;;
4726;SDS011;2377;51.734;8.950;2023-08-30T06:49:26;13.67;;;12.03;;
4726;SDS011;2377;51.734;8.950;2023-08-30T06:51:56;15.90;;;11.83;;
4726;SDS011;2377;51.734;8.950;2023-08-30T06:54:25;13.73;;;11.50;;
4726;SDS011;2377;51.734;8.950;2023-08-30T06:56:56;17.13;;;14.80;;
4726;SDS011;2377;51.734;8.950;2023-08-30T06:59:24;16.00;;;13.20;;
4726;SDS011;2377;51.734;8.950;2023-08-30T07:01:52;16.93;;;14.07;;
4726;SDS011;2377;51.734;8.950;2023-08-30T07:04:19;16.20;;;14.20;;
4726;SDS011;2377;51.734;8.950;2023-08-30T07:06:46;16.80;;;12.50;;
4726;SDS011;2377;51.734;8.950;2023-08-30T07:09:14;17.80;;;14.53;;
4726;SDS011;2377;51.734;8.950;2023-08-30T07:11:43;24.43;;;18.50;;
4726;SDS011;2377;51.734;8.950;2023-08-30T07:14:10;20.67;;;16.97;;
4726;SDS011;2377;51.734;8.950;2023-08-30T07:16:39;21.77;;;18.60;;
4726;SDS011;2377;51.734;8.950;2023-08-30T07:19:06;22.20;;;17.30;;
4726;SDS011;2377;51.734;8.950;2023-08-30T07:21:34;22.43;;;18.50;;
4726;SDS011;2377;51.734;8.950;2023-08-30T07:24:04;23.47;;;18.60;;
4726;SDS011;2377;51.734;8.950;2023-08-30T07:26:32;22.40;;;17.90;;
4726;SDS011;2377;51.734;8.950;2023-08-30T07:29:01;25.00;;;18.20;;
4726;SDS011;2377;51.734;8.950;2023-08-30T07:31:31;26.70;;;20.00;;
4726;SDS011;2377;51.734;8.950;2023-08-30T07:33:58;22.57;;;18.27;;
4726;SDS011;2377;51.734;8.950;2023-08-30T07:36:25;27.33;;;20.77;;
4726;SDS011;2377;51.734;8.950;2023-08-30T07:38:53;26.00;;;19.00;;
4726;SDS011;2377;51.734;8.950;2023-08-30T07:41:20;27.53;;;20.20;;
4726;SDS011;2377;51.734;8.950;2023-08-30T07:43:48;23.73;;;19.00;;
4726;SDS011;2377;51.734;8.950;2023-08-30T07:46:16;25.77;;;19.13;;
4726;SDS011;2377;51.734;8.950;2023-08-30T07:48:43;27.83;;;20.83;;
4726;SDS011;2377;51.734;8.950;2023-08-30T07:51:10;24.27;;;20.03;;
4726;SDS011;2377;51.734;8.950;2023-08-30T07:53:38;22.93;;;20.40;;
4726;SDS011;2377;51.734;8.950;2023-08-30T07:56:05;19.47;;;16.23;;
4726;SDS011;2377;51.734;8.950;2023-08-30T07:58:32;21.80;;;17.07;;
4726;SDS011;2377;51.734;8.950;2023-08-30T08:00:59;21.50;;;17.93;;
4726;SDS011;2377;51.734;8.950;2023-08-30T08:03:28;19.27;;;17.00;;
4726;SDS011;2377;51.734;8.950;2023-08-30T08:05:55;20.23;;;17.30;;
4726;SDS011;2377;51.734;8.950;2023-08-30T08:08:25;20.00;;;17.70;;
4726;SDS011;2377;51.734;8.950;2023-08-30T08:10:53;18.60;;;15.87;;
4726;SDS011;2377;51.734;8.950;2023-08-30T08:13:20;17.87;;;15.73;;
4726;SDS011;2377;51.734;8.950;2023-08-30T08:15:47;18.87;;;16.13;;
4726;SDS011;2377;51.734;8.950;2023-08-30T08:18:14;22.13;;;16.47;;
4726;SDS011;2377;51.734;8.950;2023-08-30T08:20:42;17.03;;;14.60;;
4726;SDS011;2377;51.734;8.950;2023-08-30T08:23:10;16.60;;;14.37;;
4726;SDS011;2377;51.734;8.950;2023-08-30T08:25:37;18.13;;;15.40;;
4726;SDS011;2377;51.734;8.950;2023-08-30T08:28:04;18.70;;;15.23;;
4726;SDS011;2377;51.734;8.950;2023-08-30T08:30:32;19.13;;;16.67;;
4726;SDS011;2377;51.734;8.950;2023-08-30T08:32:59;18.93;;;15.10;;
4726;SDS011;2377;51.734;8.950;2023-08-30T08:35:26;17.40;;;14.10;;
4726;SDS011;2377;51.734;8.950;2023-08-30T08:37:54;18.30;;;15.27;;
4726;SDS011;2377;51.734;8.950;2023-08-30T08:40:22;18.90;;;15.20;;
4726;SDS011;2377;51.734;8.950;2023-08-30T08:42:49;20.93;;;15.47;;
4726;SDS011;2377;51.734;8.950;2023-08-30T08:45:17;17.70;;;15.30;;
4726;SDS011;2377;51.734;8.950;2023-08-30T08:47:46;19.03;;;16.10;;
4726;SDS011;2377;51.734;8.950;2023-08-30T08:50:14;19.27;;;14.43;;
4726;SDS011;2377;51.734;8.950;2023-08-30T08:52:43;14.50;;;13.00;;
4726;SDS011;2377;51.734;8.950;2023-08-30T08:55:12;16.67;;;14.07;;
4726;SDS011;2377;51.734;8.950;2023-08-30T08:57:40;18.47;;;15.30;;
4726;SDS011;2377;51.734;8.950;2023-08-30T09:00:10;15.60;;;12.60;;
4726;SDS011;2377;51.734;8.950;2023-08-30T09:02:39;16.40;;;12.20;;
4726;SDS011;2377;51.734;8.950;2023-08-30T09:05:08;12.73;;;10.73;;
4726;SDS011;2377;51.734;8.950;2023-08-30T09:07:36;13.83;;;11.70;;
4726;SDS011;2377;51.734;8.950;2023-08-30T09:10:05;12.03;;;10.73;;
4726;SDS011;2377;51.734;8.950;2023-08-30T09:12:34;14.43;;;10.00;;
4726;SDS011;2377;51.734;8.950;2023-08-30T09:15:02;12.00;;;10.70;;
4726;SDS011;2377;51.734;8.950;2023-08-30T09:17:37;12.17;;;10.67;;
4726;SDS011;2377;51.734;8.950;2023-08-30T09:20:06;11.87;;;9.60;;
4726;SDS011;2377;51.734;8.950;2023-08-30T09:22:38;10.50;;;8.87;;
4726;SDS011;2377;51.734;8.950;2023-08-30T09:25:06;8.97;;;8.07;;
4726;SDS011;2377;51.734;8.950;2023-08-30T09:27:37;13.33;;;10.43;;
4726;SDS011;2377;51.734;8.950;2023-08-30T09:30:06;12.20;;;10.47;;
4726;SDS011;2377;51.734;8.950;2023-08-30T09:32:39;11.70;;;9.17;;
4726;SDS011;2377;51.734;8.950;2023-08-30T09:35:08;8.13;;;7.30;;
4726;SDS011;2377;51.734;8.950;2023-08-30T09:37:36;10.00;;;8.50;;
4726;SDS011;2377;51.734;8.950;2023-08-30T09:40:03;12.63;;;10.30;;
4726;SDS011;2377;51.734;8.950;2023-08-30T09:42:33;10.77;;;9.67;;
4726;SDS011;2377;51.734;8.950;2023-08-30T09:45:08;8.80;;;6.93;;
4726;SDS011;2377;51.734;8.950;2023-08-30T09:47:46;11.57;;;9.10;;
4726;SDS011;2377;51.734;8.950;2023-08-30T09:50:15;11.73;;;8.67;;
4726;SDS011;2377;51.734;8.950;2023-08-30T09:52:45;12.77;;;9.00;;
4726;SDS011;2377;51.734;8.950;2023-08-30T09:55:14;11.77;;;9.83;;
4726;SDS011;2377;51.734;8.950;2023-08-30T09:57:43;13.10;;;11.40;;
4726;SDS011;2377;51.734;8.950;2023-08-30T10:00:11;19.50;;;13.73;;
4726;SDS011;2377;51.734;8.950;2023-08-30T10:02:39;13.50;;;11.10;;
4726;SDS011;2377;51.734;8.950;2023-08-30T10:05:09;11.43;;;10.13;;
4726;SDS011;2377;51.734;8.950;2023-08-30T10:07:38;13.63;;;12.07;;
4726;SDS011;2377;51.734;8.950;2023-08-30T10:10:06;14.67;;;11.63;;
4726;SDS011;2377;51.734;8.950;2023-08-30T10:12:34;12.20;;;10.53;;
4726;SDS011;2377;51.734;8.950;2023-08-30T10:15:04;12.63;;;10.23;;
4726;SDS011;2377;51.734;8.950;2023-08-30T10:17:32;14.40;;;11.90;;
4726;SDS011;2377;51.734;8.950;2023-08-30T10:20:01;12.80;;;10.70;;
4726;SDS011;2377;51.734;8.950;2023-08-30T10:22:32;13.80;;;11.10;;
4726;SDS011;2377;51.734;8.950;2023-08-30T10:25:04;14.07;;;11.43;;
4726;SDS011;2377;51.734;8.950;2023-08-30T10:27:36;17.30;;;11.27;;
4726;SDS011;2377;51.734;8.950;2023-08-30T10:30:11;8.97;;;7.90;;
4726;SDS011;2377;51.734;8.950;2023-08-30T10:32:42;12.53;;;8.43;;
4726;SDS011;2377;51.734;8.950;2023-08-30T10:35:11;8.93;;;6.53;;
4726;SDS011;2377;51.734;8.950;2023-08-30T10:37:40;10.43;;;6.23;;
4726;SDS011;2377;51.734;8.950;2023-08-30T10:40:08;6.97;;;6.20;;
4726;SDS011;2377;51.734;8.950;2023-08-30T10:42:36;6.30;;;4.33;;
4726;SDS011;2377;51.734;8.950;2023-08-30T10:45:04;5.60;;;3.90;;
4726;SDS011;2377;51.734;8.950;2023-08-30T10:47:35;7.53;;;5.03;;
4726;SDS011;2377;51.734;8.950;2023-08-30T10:50:04;8.00;;;4.40;;
4726;SDS011;2377;51.734;8.950;2023-08-30T10:52:33;7.53;;;4.00;;
4726;SDS011;2377;51.734;8.950;2023-08-30T10:55:04;5.97;;;3.63;;
4726;SDS011;2377;51.734;8.950;2023-08-30T10:57:33;5.67;;;3.77;;
4726;SDS011;2377;51.734;8.950;2023-08-30T11:00:04;4.93;;;3.67;;
4726;SDS011;2377;51.734;8.950;2023-08-30T11:02:36;4.63;;;3.47;;
4726;SDS011;2377;51.734;8.950;2023-08-30T11:05:05;10.30;;;4.13;;
4726;SDS011;2377;51.734;8.950;2023-08-30T11:07:34;5.57;;;4.17;;
4726;SDS011;2377;51.734;8.950;2023-08-30T11:10:04;6.50;;;3.63;;
4726;SDS011;2377;51.734;8.950;2023-08-30T11:12:32;4.80;;;3.77;;
4726;SDS011;2377;51.734;8.950;2023-08-30T11:15:00;5.30;;;4.10;;
4726;SDS011;2377;51.734;8.950;2023-08-30T11:17:28;4.53;;;3.10;;
4726;SDS011;2377;51.734;8.950;2023-08-30T11:20:06;5.43;;;3.70;;
4726;SDS011;2377;51.734;8.950;2023-08-30T11:22:35;6.20;;;3.40;;
4726;SDS011;2377;51.734;8.950;2023-08-30T11:25:04;6.67;;;3.97;;
4726;SDS011;2377;51.734;8.950;2023-08-30T11:27:32;8.20;;;5.03;;
4726;SDS011;2377;51.734;8.950;2023-08-30T11:29:59;5.80;;;4.03;;
4726;SDS011;2377;51.734;8.950;2023-08-30T11:32:28;4.67;;;3.60;;
4726;SDS011;2377;51.734;8.950;2023-08-30T11:34:58;5.90;;;4.37;;
4726;SDS011;2377;51.734;8.950;2023-08-30T11:37:27;6.63;;;3.97;;
4726;SDS011;2377;51.734;8.950;2023-08-30T11:39:55;5.13;;;4.00;;
4726;SDS011;2377;51.734;8.950;2023-08-30T11:42:22;5.37;;;4.10;;
4726;SDS011;2377;51.734;8.950;2023-08-30T11:44:50;5.00;;;3.60;;
4726;SDS011;2377;51.734;8.950;2023-08-30T11:47:19;5.10;;;3.40;;
4726;SDS011;2377;51.734;8.950;2023-08-30T11:49:47;6.60;;;3.67;;
4726;SDS011;2377;51.734;8.950;2023-08-30T11:52:15;4.70;;;3.77;;
4726;SDS011;2377;51.734;8.950;2023-08-30T11:54:46;4.67;;;3.07;;
4726;SDS011;2377;51.734;8.950;2023-08-30T11:57:15;5.53;;;3.70;;
4726;SDS011;2377;51.734;8.950;2023-08-30T11:59:43;3.73;;;3.00;;
4726;SDS011;2377;51.734;8.950;2023-08-30T12:02:11;4.80;;;3.53;;
4726;SDS011;2377;51.734;8.950;2023-08-30T12:04:40;4.10;;;3.50;;
4726;SDS011;2377;51.734;8.950;2023-08-30T12:07:07;5.20;;;3.77;;
4726;SDS011;2377;51.734;8.950;2023-08-30T12:09:36;5.43;;;3.90;;
4726;SDS011;2377;51.734;8.950;2023-08-30T12:12:08;4.93;;;3.60;;
4726;SDS011;2377;51.734;8.950;2023-08-30T12:14:36;6.47;;;3.70;;
4726;SDS011;2377;51.734;8.950;2023-08-30T12:17:04;6.20;;;3.87;;
4726;SDS011;2377;51.734;8.950;2023-08-30T12:19:33;5.90;;;3.43;;
4726;SDS011;2377;51.734;8.950;2023-08-30T12:22:04;3.87;;;3.30;;
4726;SDS011;2377;51.734;8.950;2023-08-30T12:24:42;5.73;;;3.60;;
4726;SDS011;2377;51.734;8.950;2023-08-30T12:27:11;4.30;;;3.50;;
4726;SDS011;2377;51.734;8.950;2023-08-30T12:29:39;5.60;;;3.40;;
4726;SDS011;2377;51.734;8.950;2023-08-30T12:32:08;4.00;;;2.93;;
4726;SDS011;2377;51.734;8.950;2023-08-30T12:34:35;3.97;;;3.20;;
4726;SDS011;2377;51.734;8.950;2023-08-30T12:37:04;5.93;;;4.07;;
4726;SDS011;2377;51.734;8.950;2023-08-30T12:39:31;4.60;;;3.70;;
4726;SDS011;2377;51.734;8.950;2023-08-30T12:41:58;4.60;;;3.80;;
4726;SDS011;2377;51.734;8.950;2023-08-30T12:44:27;5.87;;;4.20;;
4726;SDS011;2377;51.734;8.950;2023-08-30T12:46:54;5.97;;;3.87;;
4726;SDS011;2377;51.734;8.950;2023-08-30T12:49:21;4.83;;;4.13;;
4726;SDS011;2377;51.734;8.950;2023-08-30T12:51:48;3.90;;;3.50;;
4726;SDS011;2377;51.734;8.950;2023-08-30T12:54:15;4.17;;;3.77;;
4726;SDS011;2377;51.734;8.950;2023-08-30T12:56:42;4.80;;;3.83;;
4726;SDS011;2377;51.734;8.950;2023-08-30T12:59:10;6.67;;;4.80;;
4726;SDS011;2377;51.734;8.950;2023-08-30T13:01:38;7.40;;;4.53;;
4726;SDS011;2377;51.734;8.950;2023-08-30T13:04:05;6.20;;;4.07;;
4726;SDS011;2377;51.734;8.950;2023-08-30T13:06:32;5.20;;;3.47;;
4726;SDS011;2377;51.734;8.950;2023-08-30T13:09:00;8.57;;;4.87;;
4726;SDS011;2377;51.734;8.950;2023-08-30T13:11:28;5.23;;;4.30;;
4726;SDS011;2377;51.734;8.950;2023-08-30T13:13:57;6.90;;;4.70;;
4726;SDS011;2377;51.734;8.950;2023-08-30T13:16:24;4.40;;;3.77;;
4726;SDS011;2377;51.734;8.950;2023-08-30T13:18:53;5.67;;;3.60;;
4726;SDS011;2377;51.734;8.950;2023-08-30T13:21:20;4.20;;;3.10;;
4726;SDS011;2377;51.734;8.950;2023-08-30T13:23:47;5.57;;;3.40;;
4726;SDS011;2377;51.734;8.950;2023-08-30T13:26:14;5.73;;;3.70;;
4726;SDS011;2377;51.734;8.950;2023-08-30T13:28:42;4.80;;;4.10;;
4726;SDS011;2377;51.734;8.950;2023-08-30T13:31:09;4.60;;;3.57;;
4726;SDS011;2377;51.734;8.950;2023-08-30T13:33:36;4.30;;;3.77;;
4726;SDS011;2377;51.734;8.950;2023-08-30T13:36:05;5.00;;;4.23;;
4726;SDS011;2377;51.734;8.950;2023-08-30T13:38:33;5.90;;;4.30;;
4726;SDS011;2377;51.734;8.950;2023-08-30T13:41:00;4.47;;;3.80;;
4726;SDS011;2377;51.734;8.950;2023-08-30T13:43:29;7.10;;;4.67;;
4726;SDS011;2377;51.734;8.950;2023-08-30T13:45:57;5.93;;;4.40;;
4726;SDS011;2377;51.734;8.950;2023-08-30T13:48:24;6.30;;;4.53;;
4726;SDS011;2377;51.734;8.950;2023-08-30T13:50:52;5.73;;;4.47;;
4726;SDS011;2377;51.734;8.950;2023-08-30T13:53:20;5.03;;;4.30;;
4726;SDS011;2377;51.734;8.950;2023-08-30T13:55:47;5.03;;;4.43;;
4726;SDS011;2377;51.734;8.950;2023-08-30T13:58:15;5.90;;;4.63;;
4726;SDS011;2377;51.734;8.950;2023-08-30T14:00:43;4.73;;;3.87;;
4726;SDS011;2377;51.734;8.950;2023-08-30T14:03:11;6.40;;;4.33;;
4726;SDS011;2377;51.734;8.950;2023-08-30T14:05:38;5.77;;;4.70;;
4726;SDS011;2377;51.734;8.950;2023-08-30T14:08:06;6.73;;;5.47;;
4726;SDS011;2377;51.734;8.950;2023-08-30T14:10:34;7.00;;;4.87;;
4726;SDS011;2377;51.734;8.950;2023-08-30T14:13:02;9.27;;;6.13;;
4726;SDS011;2377;51.734;8.950;2023-08-30T14:15:30;6.90;;;5.13;;
4726;SDS011;2377;51.734;8.950;2023-08-30T14:17:57;6.20;;;5.13;;
4726;SDS011;2377;51.734;8.950;2023-08-30T14:20:24;8.60;;;5.50;;
4726;SDS011;2377;51.734;8.950;2023-08-30T14:22:51;7.70;;;5.73;;
4726;SDS011;2377;51.734;8.950;2023-08-30T14:25:18;7.77;;;6.30;;
4726;SDS011;2377;51.734;8.950;2023-08-30T14:27:47;6.27;;;5.40;;
4726;SDS011;2377;51.734;8.950;2023-08-30T14:30:14;6.03;;;5.33;;
4726;SDS011;2377;51.734;8.950;2023-08-30T14:32:42;10.77;;;6.23;;
4726;SDS011;2377;51.734;8.950;2023-08-30T14:35:09;9.70;;;6.87;;
4726;SDS011;2377;51.734;8.950;2023-08-30T14:37:37;9.90;;;8.10;;
4726;SDS011;2377;51.734;8.950;2023-08-30T14:40:05;10.00;;;7.90;;
4726;SDS011;2377;51.734;8.950;2023-08-30T14:42:33;9.40;;;7.53;;
4726;SDS011;2377;51.734;8.950;2023-08-30T14:45:02;8.77;;;7.33;;
4726;SDS011;2377;51.734;8.950;2023-08-30T14:47:32;12.87;;;8.83;;
4726;SDS011;2377;51.734;8.950;2023-08-30T14:49:59;16.53;;;9.20;;
4726;SDS011;2377;51.734;8.950;2023-08-30T14:52:28;9.43;;;7.83;;
4726;SDS011;2377;51.734;8.950;2023-08-30T14:54:56;10.73;;;9.20;;
4726;SDS011;2377;51.734;8.950;2023-08-30T14:57:23;9.37;;;8.07;;
4726;SDS011;2377;51.734;8.950;2023-08-30T14:59:51;9.10;;;8.17;;
4726;SDS011;2377;51.734;8.950;2023-08-30T15:02:20;9.40;;;7.20;;
4726;SDS011;2377;51.734;8.950;2023-08-30T15:04:48;10.73;;;9.07;;
4726;SDS011;2377;51.734;8.950;2023-08-30T15:07:16;10.23;;;7.93;;
4726;SDS011;2377;51.734;8.950;2023-08-30T15:09:43;10.20;;;8.50;;
4726;SDS011;2377;51.734;8.950;2023-08-30T15:12:11;8.10;;;7.30;;
4726;SDS011;2377;51.734;8.950;2023-08-30T15:14:38;10.50;;;9.43;;